Elettra — H9AK — position and weather

sailwx.info

Track history (hours):
 
Tides and Currents Weather Stations Pressure Air Temp Water Temp Dewpoint Dewpoint Depression Visibility Wind Speed Wind Dir Waves Ship Positions

Elettra

Last reported at 2015-May-22 17:24 UTC. Time now 2015-May-24 13:21 UTC.
Position S 33°15' E 152°16'.

Length 254 m; draft 6.7 m.

Type: Ship. MMSI: 371188000.

Date/timePositionNaut miles runAvg speedWind from/ knotsBaromVisibWave heightAir tempDewpointWater temp
2015-May-22 17:24S 33°15' E 152°16'5 6.1
2015-May-22 16:33S 33°10' E 152°17'6 5.8
2015-May-22 15:33S 33°05' E 152°19'5 5.5
2015-May-22 14:33S 32°60' E 152°21'5 5.0
2015-May-22 13:33S 32°55' E 152°24'5 4.8
2015-May-22 12:33S 32°51' E 152°26'1 1.0
2015-May-22 11:33S 32°50' E 152°25'9 9.1
2015-May-22 10:33S 32°59' E 152°20'9 8.9
2015-May-22 09:33S 33°07' E 152°17'10 9.5
2015-May-22 08:33S 33°16' E 152°14'  
2015-May-19 10:32S 33°41' E 152°09'33 2.3
2015-May-18 20:32S 33°09' E 152°18'2 2.2
2015-May-18 19:32S 33°07' E 152°19'2 2.1
2015-May-18 18:32S 33°05' E 152°21'2 2.1
2015-May-18 17:32S 33°03' E 152°22'2 2.0
2015-May-18 16:32S 33°01' E 152°23'2 2.3
2015-May-18 15:32S 32°60' E 152°25'3 2.6
2015-May-18 14:31S 32°58' E 152°27'2 2.5
2015-May-18 13:31S 32°56' E 152°29'2 2.4
2015-May-18 12:31S 32°54' E 152°31'2 2.4
2015-May-18 11:31S 32°53' E 152°33'2 2.2
2015-May-18 10:31S 32°52' E 152°35'4 2.1
2015-May-18 08:31S 32°49' E 152°39'2 1.9
2015-May-18 07:31S 32°48' E 152°41'3 2.2
2015-May-18 06:19S 32°47' E 152°44'2 1.9
2015-May-18 05:13S 32°45' E 152°45'6 8.2
2015-May-18 04:33S 32°45' E 152°39'1110.5
2015-May-18 03:33S 32°44' E 152°26'2 2.0
2015-May-18 02:30S 32°44' E 152°24'1 1.1
2015-May-18 01:33S 32°44' E 152°24'1 1.1
2015-May-18 00:33S 32°45' E 152°25'1 1.0
2015-May-17 23:33S 32°45' E 152°26'1 0.9
2015-May-17 22:33S 32°45' E 152°27'1 0.9
2015-May-17 21:30S 32°45' E 152°29'1 1.1
2015-May-17 20:30S 32°45' E 152°30'1 1.3
2015-May-17 19:33S 32°44' E 152°31'1 1.3
2015-May-17 18:33S 32°44' E 152°33'1 1.3
2015-May-17 17:33S 32°43' E 152°34'2 1.5
2015-May-17 16:33S 32°42' E 152°35'2 1.7
2015-May-17 15:33S 32°41' E 152°37'2 1.5
2015-May-17 14:33S 32°40' E 152°38'1 1.4
2015-May-17 13:33S 32°39' E 152°40'1 1.4
2015-May-17 12:33S 32°39' E 152°41'1 1.1
2015-May-17 11:30S 32°38' E 152°42'1 1.1
2015-May-17 10:30S 32°38' E 152°43'2 0.9
2015-May-17 08:06S 32°37' E 152°46'1 0.7
2015-May-17 07:21S 32°38' E 152°47'2 0.6
2015-May-17 03:27S 32°38' E 152°49'1 0.6
2015-May-17 02:18S 32°39' E 152°50'3 0.4
2015-May-16 18:30S 32°41' E 152°53'5 0.7
2015-May-16 12:16S 32°45' E 152°56'6 7.9
2015-May-16 11:32S 32°42' E 152°49'1010.5
2015-May-16 10:33S 32°44' E 152°37'8 8.2
2015-May-16 09:34S 32°46' E 152°28'2 1.9
2015-May-16 08:32S 32°46' E 152°30'2 1.9
2015-May-16 07:32S 32°47' E 152°33'2 1.9
2015-May-16 06:32S 32°47' E 152°35'2 1.8
2015-May-16 05:32S 32°48' E 152°37'2 1.8
2015-May-16 04:32S 32°48' E 152°39'2 1.7
2015-May-16 03:32S 32°49' E 152°41'2 1.7
2015-May-16 02:32S 32°50' E 152°43'2 1.7
2015-May-16 01:32S 32°50' E 152°44'3 1.5
2015-May-15 23:16S 32°52' E 152°48'3 3.5
2015-May-15 22:19S 32°51' E 152°52'7 6.6
2015-May-15 21:14S 32°45' E 152°56'5 6.3
2015-May-15 20:30S 32°41' E 152°58'  
Track history (hours):
 
Tides and Currents Weather Stations Pressure Air Temp Water Temp Dewpoint Dewpoint Depression Visibility Wind Speed Wind Dir Waves Ship Positions

Elettra

Last reported at 2015-May-22 17:24 UTC. Time now 2015-May-24 13:21 UTC.
Position S 33°15' E 152°16'.

Length 254 m; draft 6.7 m.

Type: Ship. MMSI: 371188000.

Date/timePositionNaut miles runAvg speedWind from/ knotsBaromVisibWave heightAir tempDewpointWater temp
2015-May-22 17:24S 33°15' E 152°16'5 6.1
2015-May-22 16:33S 33°10' E 152°17'6 5.8
2015-May-22 15:33S 33°05' E 152°19'5 5.5
2015-May-22 14:33S 32°60' E 152°21'5 5.0
2015-May-22 13:33S 32°55' E 152°24'5 4.8
2015-May-22 12:33S 32°51' E 152°26'1 1.0
2015-May-22 11:33S 32°50' E 152°25'9 9.1
2015-May-22 10:33S 32°59' E 152°20'9 8.9
2015-May-22 09:33S 33°07' E 152°17'10 9.5
2015-May-22 08:33S 33°16' E 152°14'  
2015-May-19 10:32S 33°41' E 152°09'33 2.3
2015-May-18 20:32S 33°09' E 152°18'2 2.2
2015-May-18 19:32S 33°07' E 152°19'2 2.1
2015-May-18 18:32S 33°05' E 152°21'2 2.1
2015-May-18 17:32S 33°03' E 152°22'2 2.0
2015-May-18 16:32S 33°01' E 152°23'2 2.3
2015-May-18 15:32S 32°60' E 152°25'3 2.6
2015-May-18 14:31S 32°58' E 152°27'2 2.5
2015-May-18 13:31S 32°56' E 152°29'2 2.4
2015-May-18 12:31S 32°54' E 152°31'2 2.4
2015-May-18 11:31S 32°53' E 152°33'2 2.2
2015-May-18 10:31S 32°52' E 152°35'4 2.1
2015-May-18 08:31S 32°49' E 152°39'2 1.9
2015-May-18 07:31S 32°48' E 152°41'3 2.2
2015-May-18 06:19S 32°47' E 152°44'2 1.9
2015-May-18 05:13S 32°45' E 152°45'6 8.2
2015-May-18 04:33S 32°45' E 152°39'1110.5
2015-May-18 03:33S 32°44' E 152°26'2 2.0
2015-May-18 02:30S 32°44' E 152°24'1 1.1
2015-May-18 01:33S 32°44' E 152°24'1 1.1
2015-May-18 00:33S 32°45' E 152°25'1 1.0
2015-May-17 23:33S 32°45' E 152°26'1 0.9
2015-May-17 22:33S 32°45' E 152°27'1 0.9
2015-May-17 21:30S 32°45' E 152°29'1 1.1
2015-May-17 20:30S 32°45' E 152°30'1 1.3
2015-May-17 19:33S 32°44' E 152°31'1 1.3
2015-May-17 18:33S 32°44' E 152°33'1 1.3
2015-May-17 17:33S 32°43' E 152°34'2 1.5
2015-May-17 16:33S 32°42' E 152°35'2 1.7
2015-May-17 15:33S 32°41' E 152°37'2 1.5
2015-May-17 14:33S 32°40' E 152°38'1 1.4
2015-May-17 13:33S 32°39' E 152°40'1 1.4
2015-May-17 12:33S 32°39' E 152°41'1 1.1
2015-May-17 11:30S 32°38' E 152°42'1 1.1
2015-May-17 10:30S 32°38' E 152°43'2 0.9
2015-May-17 08:06S 32°37' E 152°46'1 0.7
2015-May-17 07:21S 32°38' E 152°47'2 0.6
2015-May-17 03:27S 32°38' E 152°49'1 0.6
2015-May-17 02:18S 32°39' E 152°50'3 0.4
2015-May-16 18:30S 32°41' E 152°53'5 0.7
2015-May-16 12:16S 32°45' E 152°56'6 7.9
2015-May-16 11:32S 32°42' E 152°49'1010.5
2015-May-16 10:33S 32°44' E 152°37'8 8.2
2015-May-16 09:34S 32°46' E 152°28'2 1.9
2015-May-16 08:32S 32°46' E 152°30'2 1.9
2015-May-16 07:32S 32°47' E 152°33'2 1.9
2015-May-16 06:32S 32°47' E 152°35'2 1.8
2015-May-16 05:32S 32°48' E 152°37'2 1.8
2015-May-16 04:32S 32°48' E 152°39'2 1.7
2015-May-16 03:32S 32°49' E 152°41'2 1.7
2015-May-16 02:32S 32°50' E 152°43'2 1.7
2015-May-16 01:32S 32°50' E 152°44'3 1.5
2015-May-15 23:16S 32°52' E 152°48'3 3.5
2015-May-15 22:19S 32°51' E 152°52'7 6.6
2015-May-15 21:14S 32°45' E 152°56'5 6.3
2015-May-15 20:30S 32°41' E 152°58'  

Dump ship's entire track history